sensor_id;sensor_type;location;lat;lon;timestamp;pressure;altitude;pressure_sealevel;temperature;humidity
75006;BME280;63553;51.814;4.600;2023-12-20T00:01:18;101791.34;;;15.16;73.02
75006;BME280;63553;51.814;4.600;2023-12-20T00:03:43;101796.47;;;15.14;72.80
75006;BME280;63553;51.814;4.600;2023-12-20T00:06:09;101790.84;;;15.14;72.51
75006;BME280;63553;51.814;4.600;2023-12-20T00:08:35;101792.00;;;15.13;72.50
75006;BME280;63553;51.814;4.600;2023-12-20T00:11:00;101794.47;;;15.15;72.35
75006;BME280;63553;51.814;4.600;2023-12-20T00:13:25;101797.25;;;15.15;72.30
75006;BME280;63553;51.814;4.600;2023-12-20T00:15:51;101801.22;;;15.14;72.32
75006;BME280;63553;51.814;4.600;2023-12-20T00:18:16;101796.78;;;15.13;71.59
75006;BME280;63553;51.814;4.600;2023-12-20T00:20:41;101798.25;;;15.10;72.27
75006;BME280;63553;51.814;4.600;2023-12-20T00:23:07;101789.84;;;15.10;72.11
75006;BME280;63553;51.814;4.600;2023-12-20T00:25:33;101781.78;;;15.09;72.01
75006;BME280;63553;51.814;4.600;2023-12-20T00:27:59;101792.31;;;15.12;72.43
75006;BME280;63553;51.814;4.600;2023-12-20T00:30:25;101788.72;;;15.11;72.18
75006;BME280;63553;51.814;4.600;2023-12-20T00:32:50;101794.63;;;15.10;72.16
75006;BME280;63553;51.814;4.600;2023-12-20T00:35:16;101796.59;;;15.09;72.17
75006;BME280;63553;51.814;4.600;2023-12-20T00:37:42;101794.16;;;15.08;71.79
75006;BME280;63553;51.814;4.600;2023-12-20T00:40:08;101799.41;;;15.09;71.99
75006;BME280;63553;51.814;4.600;2023-12-20T00:42:34;101798.91;;;15.07;71.89
75006;BME280;63553;51.814;4.600;2023-12-20T00:44:59;101792.84;;;15.05;71.91
75006;BME280;63553;51.814;4.600;2023-12-20T00:47:25;101790.34;;;15.03;71.64
75006;BME280;63553;51.814;4.600;2023-12-20T00:49:50;101790.03;;;15.05;71.58
75006;BME280;63553;51.814;4.600;2023-12-20T00:52:16;101793.16;;;15.03;71.79
75006;BME280;63553;51.814;4.600;2023-12-20T00:54:42;101789.50;;;15.03;71.75
75006;BME280;63553;51.814;4.600;2023-12-20T00:57:08;101801.53;;;15.03;71.65
75006;BME280;63553;51.814;4.600;2023-12-20T00:59:34;101787.88;;;15.02;71.58
75006;BME280;63553;51.814;4.600;2023-12-20T01:01:59;101786.22;;;15.01;71.45
75006;BME280;63553;51.814;4.600;2023-12-20T01:04:25;101785.09;;;15.02;71.87
75006;BME280;63553;51.814;4.600;2023-12-20T01:06:50;101787.88;;;15.02;72.00
75006;BME280;63553;51.814;4.600;2023-12-20T01:09:15;101801.91;;;15.02;71.87
75006;BME280;63553;51.814;4.600;2023-12-20T01:11:41;101801.06;;;15.01;71.65
75006;BME280;63553;51.814;4.600;2023-12-20T01:14:06;101807.81;;;15.00;71.47
75006;BME280;63553;51.814;4.600;2023-12-20T01:16:31;101807.81;;;15.00;71.59
75006;BME280;63553;51.814;4.600;2023-12-20T01:18:56;101801.38;;;15.00;71.62
75006;BME280;63553;51.814;4.600;2023-12-20T01:21:22;101798.09;;;14.98;71.78
75006;BME280;63553;51.814;4.600;2023-12-20T01:23:47;101797.59;;;14.96;71.66
75006;BME280;63553;51.814;4.600;2023-12-20T01:26:12;101788.38;;;14.95;71.55
75006;BME280;63553;51.814;4.600;2023-12-20T01:28:39;101789.50;;;14.94;71.64
75006;BME280;63553;51.814;4.600;2023-12-20T01:31:04;101794.28;;;14.94;71.31
75006;BME280;63553;51.814;4.600;2023-12-20T01:33:30;101791.00;;;14.92;71.13
75006;BME280;63553;51.814;4.600;2023-12-20T01:35:55;101793.50;;;14.93;71.25
75006;BME280;63553;51.814;4.600;2023-12-20T01:38:20;101795.47;;;14.93;71.23
75006;BME280;63553;51.814;4.600;2023-12-20T01:40:46;101797.44;;;14.92;71.16
75006;BME280;63553;51.814;4.600;2023-12-20T01:43:11;101796.59;;;14.92;70.74
75006;BME280;63553;51.814;4.600;2023-12-20T01:45:37;101787.88;;;14.93;70.64
75006;BME280;63553;51.814;4.600;2023-12-20T01:48:05;101791.00;;;14.92;70.71
75006;BME280;63553;51.814;4.600;2023-12-20T01:50:31;101800.53;;;14.91;70.55
75006;BME280;63553;51.814;4.600;2023-12-20T01:52:59;101792.13;;;14.91;70.63
75006;BME280;63553;51.814;4.600;2023-12-20T01:55:27;101783.75;;;14.91;70.83
75006;BME280;63553;51.814;4.600;2023-12-20T01:57:53;101782.13;;;14.90;70.38
75006;BME280;63553;51.814;4.600;2023-12-20T02:00:19;101779.63;;;14.88;70.60
75006;BME280;63553;51.814;4.600;2023-12-20T02:02:50;101786.72;;;14.94;70.11
75006;BME280;63553;51.814;4.600;2023-12-20T02:05:16;101792.31;;;14.94;70.46
75006;BME280;63553;51.814;4.600;2023-12-20T02:07:42;101789.69;;;14.89;70.17
75006;BME280;63553;51.814;4.600;2023-12-20T02:10:08;101785.41;;;14.92;69.99
75006;BME280;63553;51.814;4.600;2023-12-20T02:12:33;101791.50;;;14.94;70.04
75006;BME280;63553;51.814;4.600;2023-12-20T02:14:59;101783.44;;;14.92;69.92
75006;BME280;63553;51.814;4.600;2023-12-20T02:17:25;101784.44;;;14.96;69.51
75006;BME280;63553;51.814;4.600;2023-12-20T02:19:51;101787.72;;;14.98;69.55
75006;BME280;63553;51.814;4.600;2023-12-20T02:22:16;101785.56;;;14.95;69.41
75006;BME280;63553;51.814;4.600;2023-12-20T02:24:41;101773.22;;;14.96;69.51
75006;BME280;63553;51.814;4.600;2023-12-20T02:27:07;101780.81;;;14.96;69.51
75006;BME280;63553;51.814;4.600;2023-12-20T02:29:34;101777.47;;;14.94;69.40
75006;BME280;63553;51.814;4.600;2023-12-20T02:31:59;101780.28;;;14.94;69.34
75006;BME280;63553;51.814;4.600;2023-12-20T02:34:25;101788.38;;;14.95;69.26
75006;BME280;63553;51.814;4.600;2023-12-20T02:36:50;101783.09;;;14.94;69.16
75006;BME280;63553;51.814;4.600;2023-12-20T02:39:16;101790.34;;;14.95;69.25
75006;BME280;63553;51.814;4.600;2023-12-20T02:41:41;101783.91;;;14.94;68.96
75006;BME280;63553;51.814;4.600;2023-12-20T02:44:07;101783.44;;;14.92;69.00
75006;BME280;63553;51.814;4.600;2023-12-20T02:46:32;101780.63;;;14.92;69.09
75006;BME280;63553;51.814;4.600;2023-12-20T02:48:57;101775.69;;;14.89;69.45
75006;BME280;63553;51.814;4.600;2023-12-20T02:51:22;101775.19;;;14.87;69.78
75006;BME280;63553;51.814;4.600;2023-12-20T02:53:48;101773.72;;;14.90;69.17
75006;BME280;63553;51.814;4.600;2023-12-20T02:56:13;101772.88;;;14.89;69.59
75006;BME280;63553;51.814;4.600;2023-12-20T02:58:39;101768.44;;;14.88;69.19
75006;BME280;63553;51.814;4.600;2023-12-20T03:01:05;101768.94;;;14.90;69.22
75006;BME280;63553;51.814;4.600;2023-12-20T03:03:31;101758.88;;;14.89;69.23
75006;BME280;63553;51.814;4.600;2023-12-20T03:05:56;101751.13;;;14.86;69.35
75006;BME280;63553;51.814;4.600;2023-12-20T03:08:21;101751.97;;;14.87;69.10
75006;BME280;63553;51.814;4.600;2023-12-20T03:10:47;101748.66;;;14.85;69.11
75006;BME280;63553;51.814;4.600;2023-12-20T03:13:12;101755.09;;;14.85;68.94
75006;BME280;63553;51.814;4.600;2023-12-20T03:15:38;101765.44;;;14.85;69.24
75006;BME280;63553;51.814;4.600;2023-12-20T03:18:03;101759.84;;;14.85;69.49
75006;BME280;63553;51.814;4.600;2023-12-20T03:20:28;101752.63;;;14.84;69.32
75006;BME280;63553;51.814;4.600;2023-12-20T03:22:56;101752.63;;;14.84;69.40
75006;BME280;63553;51.814;4.600;2023-12-20T03:25:21;101755.44;;;14.84;69.29
75006;BME280;63553;51.814;4.600;2023-12-20T03:27:46;101738.94;;;14.82;69.27
75006;BME280;63553;51.814;4.600;2023-12-20T03:30:12;101755.09;;;14.85;68.82
75006;BME280;63553;51.814;4.600;2023-12-20T03:32:38;101750.66;;;14.84;68.94
75006;BME280;63553;51.814;4.600;2023-12-20T03:35:04;101750.66;;;14.84;68.93
75006;BME280;63553;51.814;4.600;2023-12-20T03:37:29;101741.44;;;14.84;68.77
75006;BME280;63553;51.814;4.600;2023-12-20T03:39:55;101744.53;;;14.82;68.32
75006;BME280;63553;51.814;4.600;2023-12-20T03:42:20;101753.78;;;14.83;68.71
75006;BME280;63553;51.814;4.600;2023-12-20T03:44:46;101750.97;;;14.83;68.23
75006;BME280;63553;51.814;4.600;2023-12-20T03:47:11;101757.41;;;14.83;67.90
75006;BME280;63553;51.814;4.600;2023-12-20T03:49:36;101766.28;;;14.85;68.00
75006;BME280;63553;51.814;4.600;2023-12-20T03:52:04;101751.78;;;14.83;67.96
75006;BME280;63553;51.814;4.600;2023-12-20T03:54:29;101746.84;;;14.80;67.89
75006;BME280;63553;51.814;4.600;2023-12-20T03:56:55;101734.00;;;14.79;67.53
75006;BME280;63553;51.814;4.600;2023-12-20T03:59:20;101737.97;;;14.78;67.51
75006;BME280;63553;51.814;4.600;2023-12-20T04:01:45;101738.94;;;14.82;66.92
75006;BME280;63553;51.814;4.600;2023-12-20T04:04:11;101726.59;;;14.83;66.88
75006;BME280;63553;51.814;4.600;2023-12-20T04:06:37;101734.50;;;14.81;66.54
75006;BME280;63553;51.814;4.600;2023-12-20T04:09:02;101739.59;;;14.79;66.48
75006;BME280;63553;51.814;4.600;2023-12-20T04:11:28;101738.47;;;14.80;66.90
75006;BME280;63553;51.814;4.600;2023-12-20T04:13:53;101734.00;;;14.79;66.46
75006;BME280;63553;51.814;4.600;2023-12-20T04:16:18;101739.59;;;14.79;66.49
75006;BME280;63553;51.814;4.600;2023-12-20T04:18:44;101751.97;;;14.78;66.56
75006;BME280;63553;51.814;4.600;2023-12-20T04:21:09;101746.69;;;14.77;66.51
75006;BME280;63553;51.814;4.600;2023-12-20T04:23:34;101747.81;;;14.76;66.25
75006;BME280;63553;51.814;4.600;2023-12-20T04:26:00;101754.25;;;14.76;66.37
75006;BME280;63553;51.814;4.600;2023-12-20T04:28:25;101749.81;;;14.75;66.31
75006;BME280;63553;51.814;4.600;2023-12-20T04:30:50;101745.38;;;14.74;66.18
75006;BME280;63553;51.814;4.600;2023-12-20T04:33:16;101742.09;;;14.72;66.37
75006;BME280;63553;51.814;4.600;2023-12-20T04:35:41;101739.28;;;14.72;66.16
75006;BME280;63553;51.814;4.600;2023-12-20T04:38:08;101755.56;;;14.70;66.52
75006;BME280;63553;51.814;4.600;2023-12-20T04:40:33;101760.03;;;14.71;66.16
75006;BME280;63553;51.814;4.600;2023-12-20T04:42:59;101751.63;;;14.71;66.80
75006;BME280;63553;51.814;4.600;2023-12-20T04:45:24;101750.78;;;14.71;66.02
75006;BME280;63553;51.814;4.600;2023-12-20T04:47:51;101734.34;;;14.69;66.21
75006;BME280;63553;51.814;4.600;2023-12-20T04:50:16;101735.97;;;14.70;66.50
75006;BME280;63553;51.814;4.600;2023-12-20T04:52:42;101744.72;;;14.69;66.60
75006;BME280;63553;51.814;4.600;2023-12-20T04:55:07;101738.78;;;14.70;66.79
75006;BME280;63553;51.814;4.600;2023-12-20T04:57:34;101729.88;;;14.68;66.60
75006;BME280;63553;51.814;4.600;2023-12-20T04:59:59;101728.22;;;14.67;66.88
75006;BME280;63553;51.814;4.600;2023-12-20T05:02:25;101727.91;;;14.69;67.04
75006;BME280;63553;51.814;4.600;2023-12-20T05:04:50;101727.09;;;14.68;66.67
75006;BME280;63553;51.814;4.600;2023-12-20T05:07:15;101727.91;;;14.69;67.20
75006;BME280;63553;51.814;4.600;2023-12-20T05:09:41;101729.22;;;14.80;68.29
75006;BME280;63553;51.814;4.600;2023-12-20T05:12:06;101735.81;;;14.92;69.74
75006;BME280;63553;51.814;4.600;2023-12-20T05:14:32;101744.53;;;14.91;69.46
75006;BME280;63553;51.814;4.600;2023-12-20T05:16:57;101741.25;;;14.89;69.15
75006;BME280;63553;51.814;4.600;2023-12-20T05:19:23;101746.03;;;14.88;69.41
75006;BME280;63553;51.814;4.600;2023-12-20T05:21:49;101742.09;;;14.81;69.60
75006;BME280;63553;51.814;4.600;2023-12-20T05:24:14;101735.97;;;14.79;69.43
75006;BME280;63553;51.814;4.600;2023-12-20T05:26:40;101735.31;;;14.73;69.42
75006;BME280;63553;51.814;4.600;2023-12-20T05:29:05;101738.09;;;14.73;69.37
75006;BME280;63553;51.814;4.600;2023-12-20T05:31:31;101734.16;;;14.74;69.19
75006;BME280;63553;51.814;4.600;2023-12-20T05:33:56;101746.03;;;14.71;69.28
75006;BME280;63553;51.814;4.600;2023-12-20T05:36:22;101746.03;;;14.71;69.31
75006;BME280;63553;51.814;4.600;2023-12-20T05:38:47;101743.06;;;14.68;69.30
75006;BME280;63553;51.814;4.600;2023-12-20T05:41:12;101741.44;;;14.67;68.99
75006;BME280;63553;51.814;4.600;2023-12-20T05:43:38;101740.25;;;14.68;69.02
75006;BME280;63553;51.814;4.600;2023-12-20T05:46:04;101743.41;;;14.66;68.78
75006;BME280;63553;51.814;4.600;2023-12-20T05:48:29;101734.47;;;14.64;68.72
75006;BME280;63553;51.814;4.600;2023-12-20T05:50:54;101740.41;;;14.63;68.78
75006;BME280;63553;51.814;4.600;2023-12-20T05:53:19;101747.16;;;14.62;67.81
75006;BME280;63553;51.814;4.600;2023-12-20T05:55:45;101735.97;;;14.62;67.73
75006;BME280;63553;51.814;4.600;2023-12-20T05:58:10;101735.47;;;14.60;67.29
75006;BME280;63553;51.814;4.600;2023-12-20T06:00:35;101729.41;;;14.58;67.59
75006;BME280;63553;51.814;4.600;2023-12-20T06:03:01;101737.78;;;14.58;67.04
75006;BME280;63553;51.814;4.600;2023-12-20T06:05:26;101736.13;;;14.57;66.82
75006;BME280;63553;51.814;4.600;2023-12-20T06:07:51;101740.06;;;14.56;66.81
75006;BME280;63553;51.814;4.600;2023-12-20T06:10:17;101736.13;;;14.57;67.27
75006;BME280;63553;51.814;4.600;2023-12-20T06:12:42;101737.28;;;14.56;66.95
75006;BME280;63553;51.814;4.600;2023-12-20T06:15:08;101735.31;;;14.56;67.05
75006;BME280;63553;51.814;4.600;2023-12-20T06:17:34;101732.03;;;14.54;67.07
75006;BME280;63553;51.814;4.600;2023-12-20T06:20:00;101736.44;;;14.55;67.23
75006;BME280;63553;51.814;4.600;2023-12-20T06:22:25;101737.63;;;14.63;67.61
75006;BME280;63553;51.814;4.600;2023-12-20T06:24:51;101745.03;;;14.67;68.16
75006;BME280;63553;51.814;4.600;2023-12-20T06:27:16;101757.41;;;14.75;67.58
75006;BME280;63553;51.814;4.600;2023-12-20T06:29:42;101743.72;;;14.82;69.32
75006;BME280;63553;51.814;4.600;2023-12-20T06:32:09;101748.81;;;14.88;70.03
75006;BME280;63553;51.814;4.600;2023-12-20T06:34:35;101746.19;;;14.92;69.87
75006;BME280;63553;51.814;4.600;2023-12-20T06:37:00;101746.84;;;14.89;68.73
75006;BME280;63553;51.814;4.600;2023-12-20T06:39:25;101743.06;;;14.85;67.75
75006;BME280;63553;51.814;4.600;2023-12-20T06:41:51;101737.63;;;14.80;67.51
75006;BME280;63553;51.814;4.600;2023-12-20T06:44:16;101735.81;;;14.75;67.50
75006;BME280;63553;51.814;4.600;2023-12-20T06:46:42;101730.88;;;14.72;67.53
75006;BME280;63553;51.814;4.600;2023-12-20T06:49:07;101731.03;;;14.67;66.96
75006;BME280;63553;51.814;4.600;2023-12-20T06:51:32;101726.25;;;14.68;66.54
75006;BME280;63553;51.814;4.600;2023-12-20T06:53:58;101725.13;;;14.69;66.69
75006;BME280;63553;51.814;4.600;2023-12-20T06:56:25;101719.81;;;14.67;66.46
75006;BME280;63553;51.814;4.600;2023-12-20T06:58:50;101721.00;;;14.66;66.60
75006;BME280;63553;51.814;4.600;2023-12-20T07:01:16;101716.53;;;14.65;66.35
75006;BME280;63553;51.814;4.600;2023-12-20T07:03:42;101706.50;;;14.64;66.15
75006;BME280;63553;51.814;4.600;2023-12-20T07:06:08;101705.69;;;14.64;66.26
75006;BME280;63553;51.814;4.600;2023-12-20T07:08:33;101695.63;;;14.63;66.04
75006;BME280;63553;51.814;4.600;2023-12-20T07:10:59;101711.59;;;14.62;66.30
75006;BME280;63553;51.814;4.600;2023-12-20T07:13:24;101701.59;;;14.70;66.24
75006;BME280;63553;51.814;4.600;2023-12-20T07:15:50;101704.88;;;14.72;67.18
75006;BME280;63553;51.814;4.600;2023-12-20T07:18:15;101708.84;;;14.06;76.02
75006;BME280;63553;51.814;4.600;2023-12-20T07:20:40;101711.28;;;14.98;71.78
75006;BME280;63553;51.814;4.600;2023-12-20T07:23:06;101710.13;;;14.56;64.87
75006;BME280;63553;51.814;4.600;2023-12-20T07:25:31;101715.88;;;15.02;67.85
75006;BME280;63553;51.814;4.600;2023-12-20T07:27:58;101705.16;;;14.36;66.68
75006;BME280;63553;51.814;4.600;2023-12-20T07:30:23;101710.28;;;14.68;65.02
75006;BME280;63553;51.814;4.600;2023-12-20T07:32:49;101705.50;;;14.43;66.21
75006;BME280;63553;51.814;4.600;2023-12-20T07:35:15;101711.94;;;14.61;62.63
75006;BME280;63553;51.814;4.600;2023-12-20T07:37:41;101708.63;;;14.76;64.14
75006;BME280;63553;51.814;4.600;2023-12-20T07:40:06;101716.78;;;14.21;65.74
75006;BME280;63553;51.814;4.600;2023-12-20T07:42:32;101716.47;;;14.31;65.09
75006;BME280;63553;51.814;4.600;2023-12-20T07:44:58;101717.50;;;14.35;65.24
75006;BME280;63553;51.814;4.600;2023-12-20T07:47:23;101724.75;;;14.62;64.25
75006;BME280;63553;51.814;4.600;2023-12-20T07:49:50;101733.16;;;14.44;64.28
75006;BME280;63553;51.814;4.600;2023-12-20T07:52:17;101733.63;;;14.38;63.66
75006;BME280;63553;51.814;4.600;2023-12-20T07:54:43;101720.16;;;14.57;62.98
75006;BME280;63553;51.814;4.600;2023-12-20T07:57:10;101727.75;;;14.57;63.01
75006;BME280;63553;51.814;4.600;2023-12-20T07:59:35;101732.19;;;14.58;62.71
75006;BME280;63553;51.814;4.600;2023-12-20T08:02:01;101729.06;;;14.59;62.44
75006;BME280;63553;51.814;4.600;2023-12-20T08:04:26;101721.78;;;14.41;63.03
75006;BME280;63553;51.814;4.600;2023-12-20T08:06:52;101728.56;;;14.49;62.68
75006;BME280;63553;51.814;4.600;2023-12-20T08:09:18;101733.34;;;14.09;62.81
75006;BME280;63553;51.814;4.600;2023-12-20T08:11:46;101726.72;;;14.44;62.94
75006;BME280;63553;51.814;4.600;2023-12-20T08:14:12;101737.09;;;14.43;62.24
75006;BME280;63553;51.814;4.600;2023-12-20T08:16:37;101736.28;;;14.43;62.19
75006;BME280;63553;51.814;4.600;2023-12-20T08:19:03;101740.53;;;14.40;61.88
75006;BME280;63553;51.814;4.600;2023-12-20T08:21:28;101737.09;;;14.43;61.86
75006;BME280;63553;51.814;4.600;2023-12-20T08:23:53;101736.28;;;13.95;62.01
75006;BME280;63553;51.814;4.600;2023-12-20T08:26:19;101733.56;;;14.21;61.87
75006;BME280;63553;51.814;4.600;2023-12-20T08:28:46;101725.75;;;14.40;62.00
75006;BME280;63553;51.814;4.600;2023-12-20T08:31:15;101719.47;;;14.34;61.78
75006;BME280;63553;51.814;4.600;2023-12-20T08:33:43;101726.22;;;14.33;61.62
75006;BME280;63553;51.814;4.600;2023-12-20T08:36:08;101727.13;;;14.12;62.41
75006;BME280;63553;51.814;4.600;2023-12-20T08:38:34;101727.47;;;14.19;61.20
75006;BME280;63553;51.814;4.600;2023-12-20T08:40:59;101728.84;;;14.38;61.71
75006;BME280;63553;51.814;4.600;2023-12-20T08:43:25;101726.06;;;14.47;61.68
75006;BME280;63553;51.814;4.600;2023-12-20T08:45:50;101731.34;;;14.40;61.68
75006;BME280;63553;51.814;4.600;2023-12-20T08:48:15;101727.38;;;14.41;61.38
75006;BME280;63553;51.814;4.600;2023-12-20T08:50:41;101728.84;;;14.38;61.29
75006;BME280;63553;51.814;4.600;2023-12-20T08:53:06;101722.59;;;14.33;61.27
75006;BME280;63553;51.814;4.600;2023-12-20T08:55:32;101730.78;;;14.29;61.25
75006;BME280;63553;51.814;4.600;2023-12-20T08:57:58;101726.84;;;14.30;61.11
75006;BME280;63553;51.814;4.600;2023-12-20T09:00:24;101727.47;;;14.19;61.67
75006;BME280;63553;51.814;4.600;2023-12-20T09:02:52;101729.63;;;14.30;61.57
75006;BME280;63553;51.814;4.600;2023-12-20T09:05:17;101733.03;;;14.10;61.05
75006;BME280;63553;51.814;4.600;2023-12-20T09:07:43;101740.81;;;14.22;62.15
75006;BME280;63553;51.814;4.600;2023-12-20T09:10:08;101738.44;;;14.46;61.75
75006;BME280;63553;51.814;4.600;2023-12-20T09:12:34;101733.44;;;14.34;62.11
75006;BME280;63553;51.814;4.600;2023-12-20T09:14:59;101737.59;;;14.37;61.86
75006;BME280;63553;51.814;4.600;2023-12-20T09:17:27;101732.97;;;14.41;62.13
75006;BME280;63553;51.814;4.600;2023-12-20T09:19:52;101729.88;;;14.42;61.79
75006;BME280;63553;51.814;4.600;2023-12-20T09:22:19;101723.03;;;14.26;61.84
75006;BME280;63553;51.814;4.600;2023-12-20T09:24:47;101714.69;;;14.35;61.70
75006;BME280;63553;51.814;4.600;2023-12-20T09:27:13;101723.03;;;14.26;61.78
75006;BME280;63553;51.814;4.600;2023-12-20T09:29:38;101713.38;;;14.32;62.10
75006;BME280;63553;51.814;4.600;2023-12-20T09:32:04;101715.03;;;14.33;62.48
75006;BME280;63553;51.814;4.600;2023-12-20T09:34:29;101712.72;;;14.35;61.91
75006;BME280;63553;51.814;4.600;2023-12-20T09:36:54;101712.50;;;14.32;61.58
75006;BME280;63553;51.814;4.600;2023-12-20T09:39:21;101709.09;;;13.87;61.68
75006;BME280;63553;51.814;4.600;2023-12-20T09:42:02;101718.72;;;14.12;62.04
75006;BME280;63553;51.814;4.600;2023-12-20T09:44:28;101714.13;;;14.16;61.84
75006;BME280;63553;51.814;4.600;2023-12-20T09:46:55;101710.16;;;14.17;61.91
75006;BME280;63553;51.814;4.600;2023-12-20T09:49:21;101722.72;;;14.19;61.55
75006;BME280;63553;51.814;4.600;2023-12-20T09:51:47;101718.72;;;14.12;61.77
75006;BME280;63553;51.814;4.600;2023-12-20T09:54:14;101721.06;;;14.18;61.54
75006;BME280;63553;51.814;4.600;2023-12-20T09:56:40;101731.91;;;14.20;61.89
75006;BME280;63553;51.814;4.600;2023-12-20T09:59:05;101732.25;;;14.18;61.70
75006;BME280;63553;51.814;4.600;2023-12-20T10:01:31;101730.59;;;14.17;61.59
75006;BME280;63553;51.814;4.600;2023-12-20T10:03:57;101735.50;;;14.12;61.68
75006;BME280;63553;51.814;4.600;2023-12-20T10:06:23;101747.53;;;14.21;61.56
75006;BME280;63553;51.814;4.600;2023-12-20T10:08:49;101740.63;;;14.18;61.68
75006;BME280;63553;51.814;4.600;2023-12-20T10:11:14;101728.31;;;14.19;61.86
75006;BME280;63553;51.814;4.600;2023-12-20T10:13:40;101725.53;;;14.28;61.61
75006;BME280;63553;51.814;4.600;2023-12-20T10:16:06;101719.56;;;14.21;61.52
75006;BME280;63553;51.814;4.600;2023-12-20T10:18:35;101724.69;;;14.19;61.57
75006;BME280;63553;51.814;4.600;2023-12-20T10:21:01;101725.00;;;14.26;61.57
75006;BME280;63553;51.814;4.600;2023-12-20T10:23:26;101717.44;;;14.18;61.76
75006;BME280;63553;51.814;4.600;2023-12-20T10:25:59;101716.41;;;14.14;61.97
75006;BME280;63553;51.814;4.600;2023-12-20T10:28:24;101712.28;;;14.03;62.05
75006;BME280;63553;51.814;4.600;2023-12-20T10:30:53;101713.13;;;14.12;61.87
75006;BME280;63553;51.814;4.600;2023-12-20T10:33:24;101699.97;;;14.12;62.09
75006;BME280;63553;51.814;4.600;2023-12-20T10:35:50;101697.34;;;14.16;62.22
75006;BME280;63553;51.814;4.600;2023-12-20T10:38:16;101697.69;;;14.23;62.14
75006;BME280;63553;51.814;4.600;2023-12-20T10:40:42;101693.28;;;14.30;61.87
75006;BME280;63553;51.814;4.600;2023-12-20T10:43:08;101684.38;;;14.28;61.80
75006;BME280;63553;51.814;4.600;2023-12-20T10:45:34;101696.06;;;14.22;62.11
75006;BME280;63553;51.814;4.600;2023-12-20T10:47:59;101688.50;;;14.31;62.00
75006;BME280;63553;51.814;4.600;2023-12-20T10:50:27;101689.81;;;14.25;61.84
75006;BME280;63553;51.814;4.600;2023-12-20T10:52:54;101688.97;;;14.16;62.32
75006;BME280;63553;51.814;4.600;2023-12-20T10:55:21;101686.84;;;14.30;62.18
75006;BME280;63553;51.814;4.600;2023-12-20T10:57:49;101689.81;;;14.25;61.81
75006;BME280;63553;51.814;4.600;2023-12-20T11:00:17;101690.47;;;14.22;62.37
75006;BME280;63553;51.814;4.600;2023-12-20T11:02:43;101685.53;;;14.27;62.23
75006;BME280;63553;51.814;4.600;2023-12-20T11:05:33;101684.69;;;14.27;61.99
75006;BME280;63553;51.814;4.600;2023-12-20T11:08:06;101674.34;;;14.19;61.64
75006;BME280;63553;51.814;4.600;2023-12-20T11:13:23;101667.41;;;14.16;62.09
75006;BME280;63553;51.814;4.600;2023-12-20T11:15:52;101669.72;;;14.23;62.22
75006;BME280;63553;51.814;4.600;2023-12-20T11:18:17;101674.34;;;14.19;62.05
75006;BME280;63553;51.814;4.600;2023-12-20T11:20:43;101664.94;;;14.23;62.27
75006;BME280;63553;51.814;4.600;2023-12-20T11:23:09;101662.81;;;14.29;61.97
75006;BME280;63553;51.814;4.600;2023-12-20T11:25:47;101646.50;;;14.14;62.43
75006;BME280;63553;51.814;4.600;2023-12-20T11:28:13;101645.00;;;14.08;62.45
75006;BME280;63553;51.814;4.600;2023-12-20T11:33:08;101662.13;;;14.15;62.09
75006;BME280;63553;51.814;4.600;2023-12-20T11:35:34;101654.56;;;14.07;62.64
75006;BME280;63553;51.814;4.600;2023-12-20T11:38:01;101654.75;;;14.19;62.20
75006;BME280;63553;51.814;4.600;2023-12-20T11:40:27;101650.78;;;14.11;62.25
75006;BME280;63553;51.814;4.600;2023-12-20T11:42:52;101649.16;;;14.19;62.42
75006;BME280;63553;51.814;4.600;2023-12-20T11:45:24;101649.34;;;14.31;61.87
75006;BME280;63553;51.814;4.600;2023-12-20T11:47:51;101641.13;;;14.34;61.96
75006;BME280;63553;51.814;4.600;2023-12-20T11:50:19;101642.47;;;14.37;61.71
75006;BME280;63553;51.814;4.600;2023-12-20T11:52:44;101633.22;;;14.28;61.85
75006;BME280;63553;51.814;4.600;2023-12-20T11:55:09;101641.59;;;14.19;61.72
75006;BME280;63553;51.814;4.600;2023-12-20T11:57:36;101643.22;;;14.20;61.80
75006;BME280;63553;51.814;4.600;2023-12-20T12:00:02;101632.84;;;14.12;62.13
75006;BME280;63553;51.814;4.600;2023-12-20T12:02:28;101626.91;;;14.14;62.09
75006;BME280;63553;51.814;4.600;2023-12-20T12:04:53;101622.50;;;14.13;61.92
75006;BME280;63553;51.814;4.600;2023-12-20T12:07:19;101622.63;;;14.08;62.16
75006;BME280;63553;51.814;4.600;2023-12-20T12:09:45;101622.63;;;14.08;62.01
75006;BME280;63553;51.814;4.600;2023-12-20T12:12:12;101622.31;;;14.09;62.29
75006;BME280;63553;51.814;4.600;2023-12-20T12:14:38;101624.81;;;14.19;62.15
75006;BME280;63553;51.814;4.600;2023-12-20T12:17:10;101621.69;;;14.21;61.93
75006;BME280;63553;51.814;4.600;2023-12-20T12:19:35;101625.13;;;14.18;62.48
75006;BME280;63553;51.814;4.600;2023-12-20T12:22:13;101627.56;;;14.11;62.44
75006;BME280;63553;51.814;4.600;2023-12-20T12:24:46;101619.69;;;14.13;62.46
75006;BME280;63553;51.814;4.600;2023-12-20T12:27:13;101620.69;;;14.25;62.21
75006;BME280;63553;51.814;4.600;2023-12-20T12:29:39;101619.88;;;14.16;62.23
75006;BME280;63553;51.814;4.600;2023-12-20T12:32:05;101609.34;;;14.13;62.43
75006;BME280;63553;51.814;4.600;2023-12-20T12:34:32;101608.34;;;14.26;62.12
75006;BME280;63553;51.814;4.600;2023-12-20T12:36:58;101602.41;;;14.11;62.68
75006;BME280;63553;51.814;4.600;2023-12-20T12:39:23;101592.72;;;14.17;62.38
75006;BME280;63553;51.814;4.600;2023-12-20T12:41:55;101591.09;;;14.16;62.57
75006;BME280;63553;51.814;4.600;2023-12-20T12:44:20;101595.19;;;14.27;62.29
75006;BME280;63553;51.814;4.600;2023-12-20T12:46:49;101590.91;;;14.21;62.50
75006;BME280;63553;51.814;4.600;2023-12-20T12:49:19;101591.25;;;14.19;62.61